Rabbit Lake, Canada
Current Conditions -  °F | °C
As of 10:02 PM on Tuesday 25 Nov 2014 (Local Time) from CYQW Reporting Station
Broken Clouds Broken Clouds  
Wind Chill: -17°   Ceiling: 2200
Heat Index:   Visibility: 9mi
Dew Point: -4°   Wind: 10mph
Humidity: 85%   Direction: 50°NE
Pressure: 30.28"   Gusts: NA
Location:  53.13°N, 107.77°W
Report Text: CYQW 260402Z AUTO 05009KT 9SM BKN022 BKN070 M18/M20 A3028 RMK SLP301
Loading
Personal Weather Stations






























Interactive Weather Map New forecast layout! Learn more

10-Day Weather Forecast

Advertisements
Track Severe Weather on mobile